createdAt,value
2018-12-29T00:00:23.466Z,53.80
2018-12-29T00:02:53.393Z,53.70
2018-12-29T00:05:23.130Z,53.70
2018-12-29T00:07:53.756Z,53.70
2018-12-29T00:10:23.420Z,53.80
2018-12-29T00:12:53.125Z,54.00
2018-12-29T00:15:22.854Z,54.20
2018-12-29T00:17:52.503Z,54.00
2018-12-29T00:20:22.191Z,53.70
2018-12-29T00:22:51.844Z,53.90
2018-12-29T00:25:21.599Z,53.70
2018-12-29T00:27:51.242Z,53.60
2018-12-29T00:30:20.929Z,53.50
2018-12-29T00:32:50.598Z,53.60
2018-12-29T00:35:20.346Z,53.60
2018-12-29T00:37:50.086Z,53.70
2018-12-29T00:40:19.763Z,53.80
2018-12-29T00:42:49.407Z,53.60
2018-12-29T00:45:19.088Z,53.60
2018-12-29T00:47:48.766Z,53.50
2018-12-29T00:50:18.418Z,53.40
2018-12-29T00:52:48.266Z,53.50
2018-12-29T00:55:17.927Z,53.60
2018-12-29T00:57:47.582Z,53.40
2018-12-29T01:00:17.259Z,53.70
2018-12-29T01:02:46.943Z,53.80
2018-12-29T01:05:16.601Z,54.00
2018-12-29T01:07:46.243Z,54.30
2018-12-29T01:10:15.978Z,54.20
2018-12-29T01:12:45.632Z,54.20
2018-12-29T01:15:15.289Z,54.30
2018-12-29T01:17:44.935Z,54.30
2018-12-29T01:20:14.611Z,54.20
2018-12-29T01:22:44.246Z,54.50
2018-12-29T01:25:13.910Z,54.40
2018-12-29T01:27:43.564Z,54.60
2018-12-29T01:30:13.231Z,54.50
2018-12-29T01:32:42.879Z,54.60
2018-12-29T01:35:12.543Z,54.60
2018-12-29T01:37:42.193Z,54.60
2018-12-29T01:40:11.842Z,54.60
2018-12-29T01:42:41.495Z,54.80
2018-12-29T01:45:17.411Z,54.40
2018-12-29T01:47:43.522Z,54.40
2018-12-29T01:50:13.190Z,54.70
2018-12-29T01:52:42.934Z,55.00
2018-12-29T01:55:12.654Z,54.90
2018-12-29T01:57:42.322Z,54.70
2018-12-29T02:00:12.117Z,54.50
2018-12-29T02:02:41.775Z,54.60
2018-12-29T02:05:13.378Z,54.50
2018-12-29T02:07:43.026Z,54.40
2018-12-29T02:10:12.680Z,54.50
2018-12-29T02:12:42.335Z,54.60
2018-12-29T02:15:12.050Z,54.60
2018-12-29T02:17:41.707Z,54.70
2018-12-29T02:20:11.358Z,54.40
2018-12-29T02:22:41.006Z,54.80
2018-12-29T02:25:10.731Z,54.80
2018-12-29T02:27:40.386Z,54.70
2018-12-29T02:30:10.099Z,54.60
2018-12-29T02:32:40.755Z,54.60
2018-12-29T02:35:10.470Z,54.50
2018-12-29T02:37:40.130Z,54.50
2018-12-29T02:40:09.779Z,54.60
2018-12-29T02:42:39.440Z,54.70
2018-12-29T02:45:09.086Z,54.50
2018-12-29T02:47:38.746Z,54.50
2018-12-29T02:50:08.480Z,54.50
2018-12-29T02:52:38.132Z,54.70
2018-12-29T02:55:08.246Z,54.80
2018-12-29T02:57:37.974Z,54.90
2018-12-29T03:00:07.739Z,54.80
2018-12-29T03:02:37.647Z,55.00
2018-12-29T03:05:07.290Z,55.40
2018-12-29T03:07:36.962Z,55.00
2018-12-29T03:10:07.735Z,55.40
2018-12-29T03:12:37.392Z,55.20
2018-12-29T03:15:07.274Z,55.30
2018-12-29T03:17:36.930Z,55.00
2018-12-29T03:20:06.591Z,55.20
2018-12-29T03:22:36.258Z,55.30
2018-12-29T03:25:05.999Z,55.20
2018-12-29T03:27:35.668Z,54.90
2018-12-29T03:30:05.596Z,55.10
2018-12-29T03:32:35.318Z,54.90
2018-12-29T03:35:05.451Z,54.90
2018-12-29T03:37:35.115Z,55.30
2018-12-29T03:40:05.649Z,55.50
2018-12-29T03:42:35.298Z,55.30
2018-12-29T03:45:05.195Z,55.90
2018-12-29T03:47:34.903Z,55.70
2018-12-29T03:50:05.123Z,56.00
2018-12-29T03:52:34.815Z,55.50
2018-12-29T03:55:04.632Z,55.70
2018-12-29T03:57:34.355Z,56.10
2018-12-29T04:00:04.715Z,55.90
2018-12-29T04:02:34.377Z,56.30
2018-12-29T04:05:04.152Z,56.10
2018-12-29T04:07:33.978Z,55.80
2018-12-29T04:10:04.339Z,55.70
2018-12-29T04:12:37.362Z,56.20
2018-12-29T04:15:09.226Z,56.20
2018-12-29T04:17:38.959Z,55.90
2018-12-29T04:20:08.603Z,55.90
2018-12-29T04:22:38.332Z,55.80
2018-12-29T04:25:07.986Z,55.70
2018-12-29T04:27:37.693Z,56.00
2018-12-29T04:30:07.386Z,55.80
2018-12-29T04:32:37.078Z,55.80
2018-12-29T04:35:06.767Z,55.70
2018-12-29T04:37:36.419Z,55.60
2018-12-29T04:40:06.245Z,55.60
2018-12-29T04:42:35.916Z,55.60
2018-12-29T04:45:05.638Z,55.70
2018-12-29T04:47:35.285Z,55.50
2018-12-29T04:50:05.466Z,56.00
2018-12-29T04:52:35.131Z,56.00
2018-12-29T04:55:05.189Z,56.00
2018-12-29T04:57:34.835Z,56.10
2018-12-29T05:00:04.822Z,55.50
2018-12-29T05:02:34.477Z,56.10
2018-12-29T05:05:04.292Z,56.10
2018-12-29T05:07:36.739Z,56.00
2018-12-29T05:10:06.579Z,56.20
2018-12-29T05:12:36.224Z,55.80
2018-12-29T05:15:06.054Z,56.30
2018-12-29T05:17:35.710Z,56.30
2018-12-29T05:20:05.471Z,56.20
2018-12-29T05:22:35.131Z,56.30
2018-12-29T05:25:04.863Z,56.30
2018-12-29T05:27:34.511Z,56.00
2018-12-29T05:30:04.723Z,56.10
2018-12-29T05:32:34.380Z,55.90
2018-12-29T05:35:04.195Z,56.00
2018-12-29T05:37:33.846Z,55.90
2018-12-29T05:40:03.740Z,56.20
2018-12-29T05:42:33.426Z,56.00
2018-12-29T05:45:12.679Z,56.20
2018-12-29T05:47:38.512Z,56.50
2018-12-29T05:50:08.278Z,56.50
2018-12-29T05:52:37.923Z,57.00
2018-12-29T05:55:07.591Z,56.50
2018-12-29T05:57:37.270Z,56.40
2018-12-29T06:00:07.327Z,56.30
2018-12-29T06:02:36.975Z,56.50
2018-12-29T06:05:06.694Z,56.20
2018-12-29T06:07:36.350Z,56.40
2018-12-29T06:10:06.154Z,56.40
2018-12-29T06:12:35.887Z,56.30
2018-12-29T06:15:05.687Z,56.10
2018-12-29T06:17:35.382Z,56.20
2018-12-29T06:20:05.285Z,56.20
2018-12-29T06:22:34.966Z,56.10
2018-12-29T06:25:04.685Z,56.20
2018-12-29T06:27:34.363Z,56.20
2018-12-29T06:30:04.282Z,56.00
2018-12-29T06:32:33.952Z,55.80
2018-12-29T06:35:03.678Z,56.40
2018-12-29T06:37:33.336Z,56.50
2018-12-29T06:40:02.990Z,56.80
2018-12-29T06:42:32.646Z,56.60
2018-12-29T06:45:02.295Z,56.50
2018-12-29T06:47:31.967Z,56.40
2018-12-29T06:50:01.627Z,56.30
2018-12-29T06:52:31.292Z,57.10
2018-12-29T06:55:01.015Z,57.00
2018-12-29T06:57:30.671Z,57.00
2018-12-29T07:00:00.316Z,58.20
2018-12-29T07:02:29.966Z,57.60
2018-12-29T07:04:59.619Z,57.70
2018-12-29T07:07:29.274Z,57.20
2018-12-29T07:09:58.934Z,57.40
2018-12-29T07:12:28.602Z,57.00
2018-12-29T07:14:58.259Z,56.50
2018-12-29T07:17:27.919Z,56.60
2018-12-29T07:19:57.615Z,56.80
2018-12-29T07:22:27.274Z,56.50
2018-12-29T07:24:56.926Z,56.60
2018-12-29T07:27:26.584Z,56.70
2018-12-29T07:29:56.226Z,57.10
2018-12-29T07:32:25.897Z,56.70
2018-12-29T07:34:55.560Z,56.40
2018-12-29T07:37:25.231Z,56.20
2018-12-29T07:39:54.888Z,55.80
2018-12-29T07:42:24.551Z,55.70
2018-12-29T07:44:55.175Z,55.80
2018-12-29T07:47:24.826Z,55.70
2018-12-29T07:49:54.484Z,55.30
2018-12-29T07:52:24.150Z,55.10
2018-12-29T07:54:53.839Z,56.20
2018-12-29T07:57:24.459Z,55.50
2018-12-29T07:59:54.127Z,55.50
2018-12-29T08:02:23.796Z,55.40
2018-12-29T08:04:53.670Z,55.80
2018-12-29T08:07:23.320Z,56.20
2018-12-29T08:09:53.071Z,55.80
2018-12-29T08:12:22.744Z,55.70
2018-12-29T08:14:52.415Z,55.80
2018-12-29T08:17:22.071Z,55.40
2018-12-29T08:19:51.726Z,55.70
2018-12-29T08:22:21.374Z,55.70
2018-12-29T08:24:51.033Z,55.70
2018-12-29T08:27:20.679Z,55.80
2018-12-29T08:29:50.334Z,55.70
2018-12-29T08:32:20.013Z,55.80
2018-12-29T08:34:49.680Z,55.50
2018-12-29T08:37:19.422Z,55.80
2018-12-29T08:39:49.110Z,55.80
2018-12-29T08:42:18.762Z,55.90
2018-12-29T08:44:48.423Z,55.90
2018-12-29T08:47:18.075Z,55.90
2018-12-29T08:49:47.736Z,56.00
2018-12-29T08:52:17.385Z,55.70
2018-12-29T08:54:47.040Z,56.80
2018-12-29T08:57:16.695Z,56.60
2018-12-29T08:59:46.405Z,57.20
2018-12-29T09:02:16.048Z,57.80
2018-12-29T09:04:47.044Z,57.80
2018-12-29T09:07:16.770Z,57.70
2018-12-29T09:09:46.455Z,57.40
2018-12-29T09:12:16.119Z,57.70
2018-12-29T09:14:45.775Z,57.40
2018-12-29T09:17:15.496Z,57.30
2018-12-29T09:19:45.154Z,56.90
2018-12-29T09:22:14.819Z,56.30
2018-12-29T09:24:44.458Z,56.40
2018-12-29T09:27:14.123Z,56.80
2018-12-29T09:29:43.782Z,56.20
2018-12-29T09:32:13.599Z,56.40
2018-12-29T09:34:43.254Z,56.20
2018-12-29T09:37:12.915Z,56.10
2018-12-29T09:39:43.535Z,56.30
2018-12-29T09:42:13.187Z,56.20
2018-12-29T09:44:42.847Z,56.00
2018-12-29T09:47:19.399Z,56.00
2018-12-29T09:49:43.843Z,56.00
2018-12-29T09:52:13.514Z,56.10
2018-12-29T09:54:43.541Z,56.00
2018-12-29T09:57:14.818Z,55.90
2018-12-29T09:59:45.725Z,56.00
2018-12-29T10:02:15.414Z,56.00
2018-12-29T10:04:45.126Z,56.10
2018-12-29T10:07:14.819Z,56.10
2018-12-29T10:09:44.474Z,56.10
2018-12-29T10:12:14.141Z,56.00
2018-12-29T10:14:43.792Z,56.30
2018-12-29T10:17:13.455Z,56.30
2018-12-29T10:19:43.111Z,58.60
2018-12-29T10:22:12.768Z,61.10
2018-12-29T10:24:42.459Z,62.20
2018-12-29T10:27:12.138Z,63.40
2018-12-29T10:29:41.791Z,64.80
2018-12-29T10:32:11.514Z,64.40
2018-12-29T10:34:41.184Z,64.80
2018-12-29T10:37:11.799Z,63.80
2018-12-29T10:39:41.471Z,61.60
2018-12-29T10:42:11.110Z,60.10
2018-12-29T10:44:40.787Z,60.30
2018-12-29T10:47:10.441Z,62.00
2018-12-29T10:49:40.100Z,62.00
2018-12-29T10:52:09.757Z,62.00
2018-12-29T10:54:39.414Z,62.90
2018-12-29T10:57:09.058Z,61.50
2018-12-29T10:59:38.710Z,61.10
2018-12-29T11:02:08.439Z,61.60
2018-12-29T11:04:38.204Z,61.80
2018-12-29T11:07:07.842Z,61.30
2018-12-29T11:09:37.502Z,61.20
2018-12-29T11:12:07.165Z,60.70
2018-12-29T11:14:36.899Z,59.90
2018-12-29T11:17:06.547Z,59.80
2018-12-29T11:19:36.214Z,59.80
2018-12-29T11:22:05.859Z,59.30
2018-12-29T11:24:37.296Z,59.40
2018-12-29T11:27:06.878Z,59.20
2018-12-29T11:29:36.535Z,59.20
2018-12-29T11:32:06.235Z,59.60
2018-12-29T11:34:35.948Z,58.70
2018-12-29T11:37:05.602Z,58.80
2018-12-29T11:39:35.266Z,59.30
2018-12-29T11:42:04.910Z,59.10
2018-12-29T11:44:34.579Z,58.60
2018-12-29T11:47:04.358Z,58.40
2018-12-29T11:49:34.035Z,58.60
2018-12-29T11:52:03.692Z,58.20
2018-12-29T11:54:33.351Z,58.70
2018-12-29T11:57:03.035Z,58.50
2018-12-29T11:59:32.723Z,58.30
2018-12-29T12:02:02.362Z,58.50
2018-12-29T12:04:32.022Z,58.90
2018-12-29T12:07:01.955Z,58.80
2018-12-29T12:09:31.607Z,58.20
2018-12-29T12:12:01.278Z,59.10
2018-12-29T12:14:30.930Z,58.80
2018-12-29T12:17:00.595Z,58.90
2018-12-29T12:19:30.239Z,58.70
2018-12-29T12:21:59.898Z,58.00
2018-12-29T12:24:29.545Z,58.60
2018-12-29T12:26:59.219Z,58.40
2018-12-29T12:29:28.913Z,59.20
2018-12-29T12:31:58.582Z,58.90
2018-12-29T12:34:28.230Z,58.80
2018-12-29T12:36:57.914Z,58.70
2018-12-29T12:39:27.647Z,58.70
2018-12-29T12:41:57.311Z,58.50
2018-12-29T12:44:27.038Z,57.10
2018-12-29T12:47:05.966Z,58.30
2018-12-29T12:49:35.618Z,58.30
2018-12-29T12:52:05.355Z,58.40
2018-12-29T12:54:35.138Z,57.70
2018-12-29T12:57:05.158Z,58.20
2018-12-29T12:59:34.999Z,58.00
2018-12-29T13:02:04.726Z,58.10
2018-12-29T13:04:34.390Z,58.10
2018-12-29T13:07:04.115Z,58.30
2018-12-29T13:09:33.763Z,57.90
2018-12-29T13:12:03.507Z,57.80
2018-12-29T13:14:33.154Z,58.00
2018-12-29T13:17:03.897Z,58.40
2018-12-29T13:19:33.682Z,58.20
2018-12-29T13:22:03.343Z,57.50
2018-12-29T13:24:32.999Z,58.10
2018-12-29T13:27:02.659Z,58.10
2018-12-29T13:29:32.303Z,57.70
2018-12-29T13:32:01.986Z,57.70
2018-12-29T13:34:31.642Z,58.20
2018-12-29T13:37:01.305Z,58.40
2018-12-29T13:39:31.019Z,57.80
2018-12-29T13:42:00.665Z,57.50
2018-12-29T13:44:30.334Z,57.40
2018-12-29T13:46:59.983Z,57.90
2018-12-29T13:49:29.646Z,57.90
2018-12-29T13:51:59.579Z,57.00
2018-12-29T13:54:29.255Z,57.90
2018-12-29T13:56:58.903Z,57.40
2018-12-29T13:59:28.568Z,56.90
2018-12-29T14:01:58.223Z,57.00
2018-12-29T14:04:27.892Z,57.30
2018-12-29T14:06:57.551Z,57.80
2018-12-29T14:09:27.212Z,58.70
2018-12-29T14:11:57.833Z,58.10
2018-12-29T14:14:27.854Z,58.40
2018-12-29T14:16:57.514Z,58.70
2018-12-29T14:19:27.179Z,58.80
2018-12-29T14:21:56.955Z,58.50
2018-12-29T14:24:26.640Z,58.20
2018-12-29T14:26:56.296Z,58.50
2018-12-29T14:29:26.063Z,59.10
2018-12-29T14:31:55.711Z,58.70
2018-12-29T14:34:25.379Z,58.50
2018-12-29T14:36:55.311Z,58.40
2018-12-29T14:39:25.010Z,58.80
2018-12-29T14:41:54.659Z,58.10
2018-12-29T14:44:24.314Z,58.10
2018-12-29T14:46:53.962Z,59.00
2018-12-29T14:49:23.618Z,59.20
2018-12-29T14:51:53.272Z,59.10
2018-12-29T14:54:22.943Z,59.20
2018-12-29T14:56:52.596Z,58.90
2018-12-29T14:59:22.500Z,59.00
2018-12-29T15:01:52.159Z,58.70
2018-12-29T15:04:21.860Z,59.20
2018-12-29T15:06:51.515Z,59.30
2018-12-29T15:09:21.186Z,58.90
2018-12-29T15:11:50.867Z,59.50
2018-12-29T15:14:20.517Z,59.00
2018-12-29T15:16:50.558Z,58.70
2018-12-29T15:19:20.255Z,58.40
2018-12-29T15:24:32.158Z,58.90
2018-12-29T15:27:01.820Z,59.30
2018-12-29T15:29:31.462Z,59.90
2018-12-29T15:32:01.131Z,59.30
2018-12-29T15:34:30.791Z,59.40
2018-12-29T15:37:00.455Z,59.60
2018-12-29T15:39:30.388Z,59.20
2018-12-29T15:42:00.146Z,59.00
2018-12-29T15:44:29.803Z,59.30
2018-12-29T15:46:59.737Z,58.90
2018-12-29T15:49:29.379Z,58.70
2018-12-29T15:51:59.035Z,59.60
2018-12-29T15:54:28.683Z,59.10
2018-12-29T15:56:58.339Z,59.30
2018-12-29T15:59:28.362Z,59.60
2018-12-29T16:01:58.018Z,58.90
2018-12-29T16:04:27.871Z,58.80
2018-12-29T16:06:57.599Z,58.30
2018-12-29T16:09:27.682Z,58.60
2018-12-29T16:11:57.686Z,59.40
2018-12-29T16:14:27.420Z,59.10
2018-12-29T16:16:57.550Z,59.40
2018-12-29T16:19:27.324Z,59.10
2018-12-29T16:21:57.669Z,59.00
2018-12-29T16:24:56.705Z,58.60
2018-12-29T16:27:26.408Z,58.50
2018-12-29T16:29:56.127Z,58.80
2018-12-29T16:32:25.877Z,59.10
2018-12-29T16:34:55.694Z,58.90
2018-12-29T16:39:01.374Z,59.20
2018-12-29T16:40:15.224Z,58.80
2018-12-29T16:42:44.958Z,58.60
2018-12-29T16:45:14.691Z,58.60
2018-12-29T16:47:44.355Z,58.00
2018-12-29T16:50:14.002Z,57.60
2018-12-29T16:52:43.687Z,57.50
2018-12-29T16:55:13.644Z,57.90
2018-12-29T16:57:43.320Z,58.20
2018-12-29T17:00:13.049Z,59.00
2018-12-29T17:02:42.729Z,58.40
2018-12-29T17:05:12.670Z,59.30
2018-12-29T17:07:42.326Z,60.20
2018-12-29T17:10:12.160Z,59.50
2018-12-29T17:12:41.888Z,59.30
2018-12-29T17:15:11.987Z,59.60
2018-12-29T17:17:41.647Z,58.70
2018-12-29T17:20:11.299Z,58.90
2018-12-29T17:22:41.155Z,59.00
2018-12-29T17:25:10.803Z,58.70
2018-12-29T17:27:40.463Z,58.80
2018-12-29T17:30:10.127Z,58.00
2018-12-29T17:32:40.167Z,58.80
2018-12-29T17:35:09.827Z,58.50
2018-12-29T17:37:39.618Z,58.90
2018-12-29T17:40:09.303Z,58.70
2018-12-29T17:42:38.951Z,58.70
2018-12-29T17:45:09.010Z,58.50
2018-12-29T17:47:38.659Z,58.60
2018-12-29T17:50:08.387Z,58.80
2018-12-29T17:52:38.043Z,58.40
2018-12-29T17:55:08.001Z,58.70
2018-12-29T17:57:37.731Z,59.50
2018-12-29T18:00:07.785Z,59.30
2018-12-29T18:02:37.511Z,59.60
2018-12-29T18:05:07.255Z,59.80
2018-12-29T18:07:36.979Z,59.50
2018-12-29T18:10:06.834Z,59.90
2018-12-29T18:12:36.501Z,59.30
2018-12-29T18:15:06.323Z,59.70
2018-12-29T18:17:36.311Z,59.30
2018-12-29T18:20:06.080Z,59.60
2018-12-29T18:22:35.880Z,59.90
2018-12-29T18:25:05.732Z,59.70
2018-12-29T18:27:35.391Z,59.60
2018-12-29T18:30:05.585Z,59.60
2018-12-29T18:32:35.256Z,59.90
2018-12-29T18:35:04.971Z,59.80
2018-12-29T18:37:35.606Z,59.60
2018-12-29T18:40:05.530Z,59.40
2018-12-29T18:42:35.399Z,59.60
2018-12-29T18:45:05.442Z,59.90
2018-12-29T18:47:35.099Z,59.80
2018-12-29T18:50:05.267Z,59.60
2018-12-29T18:52:34.927Z,59.50
2018-12-29T18:55:05.203Z,59.80
2018-12-29T18:57:34.942Z,59.80
2018-12-29T19:00:05.259Z,60.00
2018-12-29T19:02:34.906Z,60.00
2018-12-29T19:05:05.721Z,59.40
2018-12-29T19:07:35.463Z,59.80
2018-12-29T19:10:05.462Z,59.20
2018-12-29T19:12:35.186Z,59.50
2018-12-29T19:15:05.498Z,59.90
2018-12-29T19:17:35.557Z,59.30
2018-12-29T19:20:06.077Z,59.10
2018-12-29T19:22:35.743Z,59.70
2018-12-29T19:25:05.559Z,59.50
2018-12-29T19:27:35.295Z,59.40
2018-12-29T19:30:05.451Z,59.00
2018-12-29T19:32:35.503Z,58.70
2018-12-29T19:35:05.569Z,59.10
2018-12-29T19:37:35.846Z,59.00
2018-12-29T19:40:05.942Z,59.40
2018-12-29T19:42:35.598Z,59.30
2018-12-29T19:45:06.862Z,59.10
2018-12-29T19:47:36.527Z,58.60
2018-12-29T19:50:06.662Z,59.10
2018-12-29T19:52:36.422Z,58.70
2018-12-29T19:55:07.042Z,58.60
2018-12-29T19:57:36.991Z,58.20
2018-12-29T20:00:08.474Z,58.80
2018-12-29T20:02:38.518Z,58.40
2018-12-29T20:05:08.639Z,59.20
2018-12-29T20:07:38.304Z,58.80
2018-12-29T20:10:08.314Z,58.80
2018-12-29T20:12:37.975Z,58.40
2018-12-29T20:15:07.798Z,58.50
2018-12-29T20:17:37.726Z,58.50
2018-12-29T20:20:07.497Z,58.00
2018-12-29T20:22:37.207Z,57.80
2018-12-29T20:25:07.114Z,57.20
2018-12-29T20:27:36.764Z,57.20
2018-12-29T20:30:07.778Z,57.00
2018-12-29T20:32:37.521Z,57.00
2018-12-29T20:35:07.322Z,56.00
2018-12-29T20:37:36.966Z,56.80
2018-12-29T20:40:06.803Z,57.00
2018-12-29T20:42:36.454Z,58.10
2018-12-29T20:45:06.425Z,56.50
2018-12-29T20:47:36.080Z,57.40
2018-12-29T20:50:09.603Z,56.40
2018-12-29T20:52:38.158Z,57.20
2018-12-29T20:55:07.975Z,57.50
2018-12-29T20:57:37.623Z,57.30
2018-12-29T21:00:08.995Z,57.70
2018-12-29T21:02:38.638Z,57.80
2018-12-29T21:05:08.387Z,58.20
2018-12-29T21:07:38.091Z,58.40
2018-12-29T21:10:07.925Z,58.10
2018-12-29T21:12:37.592Z,58.30
2018-12-29T21:15:07.406Z,58.50
2018-12-29T21:17:38.036Z,57.90
2018-12-29T21:20:07.887Z,58.30
2018-12-29T21:22:37.538Z,57.60
2018-12-29T21:25:07.274Z,57.50
2018-12-29T21:27:36.918Z,57.60
2018-12-29T21:30:06.855Z,57.30
2018-12-29T21:32:36.558Z,57.40
2018-12-29T21:35:06.434Z,57.40
2018-12-29T21:37:36.109Z,56.50
2018-12-29T21:40:05.886Z,56.50
2018-12-29T21:42:35.531Z,56.80
2018-12-29T21:45:05.512Z,56.90
2018-12-29T21:47:35.167Z,56.80
2018-12-29T21:50:05.326Z,57.20
2018-12-29T21:52:35.109Z,57.40
2018-12-29T21:55:05.015Z,57.00
2018-12-29T21:57:34.666Z,56.50
2018-12-29T22:00:04.551Z,56.50
2018-12-29T22:02:36.054Z,57.10
2018-12-29T22:05:05.927Z,57.50
2018-12-29T22:07:35.585Z,59.10
2018-12-29T22:10:05.414Z,57.60
2018-12-29T22:12:35.074Z,56.50
2018-12-29T22:15:07.724Z,55.70
2018-12-29T22:17:37.463Z,55.70
2018-12-29T22:20:07.838Z,55.20
2018-12-29T22:22:37.494Z,55.80
2018-12-29T22:25:08.189Z,56.30
2018-12-29T22:27:37.839Z,55.70
2018-12-29T22:30:07.759Z,56.00
2018-12-29T22:32:37.450Z,56.50
2018-12-29T22:35:07.246Z,56.60
2018-12-29T22:37:36.986Z,56.20
2018-12-29T22:40:06.783Z,56.00
2018-12-29T22:42:36.521Z,56.10
2018-12-29T22:45:06.463Z,57.40
2018-12-29T22:47:36.193Z,56.80
2018-12-29T22:50:06.619Z,56.00
2018-12-29T22:52:36.275Z,56.40
2018-12-29T22:55:06.119Z,55.70
2018-12-29T22:57:36.055Z,55.40
2018-12-29T23:00:08.653Z,55.50
2018-12-29T23:02:38.422Z,56.00
2018-12-29T23:05:08.114Z,55.30
2018-12-29T23:07:37.855Z,56.20
2018-12-29T23:10:07.577Z,56.30
2018-12-29T23:12:37.322Z,56.70
2018-12-29T23:15:08.191Z,56.10
2018-12-29T23:17:37.851Z,56.30
2018-12-29T23:20:07.662Z,55.90
2018-12-29T23:22:37.607Z,56.50
2018-12-29T23:25:07.335Z,55.80
2018-12-29T23:27:37.183Z,56.40
2018-12-29T23:30:06.987Z,55.20
2018-12-29T23:32:36.639Z,55.80
2018-12-29T23:35:06.378Z,55.80
2018-12-29T23:37:36.030Z,56.10
2018-12-29T23:40:06.108Z,55.70
2018-12-29T23:42:35.903Z,55.30
2018-12-29T23:45:06.214Z,55.10
2018-12-29T23:47:36.250Z,55.40
2018-12-29T23:50:06.777Z,55.60
2018-12-29T23:52:36.499Z,55.70
2018-12-29T23:55:06.486Z,55.80
2018-12-29T23:57:36.410Z,55.10
